Time;durP1;ratioP1;P1;durP2;ratioP2;P2;SDS_P1;SDS_P2;PMS_P1;PMS_P2;Temp;Humidity;BMP_temperature;BMP_pressure;BME280_temperature;BME280_humidity;BME280_pressure;Samples;Min_cycle;Max_cycle;Signal;HPM_P1;HPM_P2
2023/10/17 00:02:27;;;;;;;7.70;4.28;;;;;;;10.30;85.63;101952.09;5063685;28;20068;-59
2023/10/17 00:04:53;;;;;;;12.13;4.47;;;;;;;10.35;85.63;101953.09;5075678;28;20061;-59
2023/10/17 00:07:20;;;;;;;7.90;4.40;;;;;;;10.40;85.21;101952.38;5074718;28;20028;-59
2023/10/17 00:09:47;;;;;;;9.65;4.65;;;;;;;10.42;84.72;101955.97;5075960;28;20064;-59
2023/10/17 00:14:45;;;;;;;8.35;4.53;;;;;;;10.35;85.07;101954.00;5074406;28;20120;-59
2023/10/17 00:17:13;;;;;;;10.55;4.93;;;;;;;10.37;85.28;101952.31;5075940;28;20123;-59
2023/10/17 00:19:41;;;;;;;9.68;5.00;;;;;;;10.27;85.14;101948.47;5075301;28;20407;-59
2023/10/17 00:22:09;;;;;;;10.45;4.75;;;;;;;10.22;85.74;101952.72;5075456;28;20027;-59
2023/10/17 00:24:34;;;;;;;8.07;5.20;;;;;;;10.14;86.04;101943.66;5075398;28;20054;-59
2023/10/17 00:27:02;;;;;;;12.23;5.20;;;;;;;10.09;86.09;101947.00;5075345;28;20066;-59
2023/10/17 00:29:27;;;;;;;7.38;4.40;;;;;;;10.02;86.75;101938.91;5075627;28;20098;-59
2023/10/17 00:31:53;;;;;;;10.13;4.85;;;;;;;9.94;86.86;101937.78;5074135;28;20462;-59
2023/10/17 00:34:21;;;;;;;10.50;4.85;;;;;;;9.88;87.39;101936.69;5075207;28;20103;-59
2023/10/17 00:36:48;;;;;;;10.05;4.53;;;;;;;9.82;88.24;101940.03;5075511;28;20020;-59
2023/10/17 00:39:29;;;;;;;7.88;4.80;;;;;;;9.77;88.37;101928.44;5075170;28;20056;-60
2023/10/17 00:44:44;;;;;;;7.50;4.90;;;;;;;9.67;89.14;101921.97;5075379;28;20462;-60
2023/10/17 00:47:22;;;;;;;9.60;5.05;;;;;;;9.65;89.37;101928.94;5075070;28;20537;-59
2023/10/17 00:49:49;;;;;;;9.48;4.70;;;;;;;9.63;89.32;101921.81;5073884;28;20051;-59
2023/10/17 00:52:28;;;;;;;9.90;5.10;;;;;;;9.60;89.50;101927.91;5073960;28;20382;-59
2023/10/17 00:54:54;;;;;;;8.20;4.47;;;;;;;9.52;90.16;101932.94;5075123;28;20036;-59
2023/10/17 00:57:26;;;;;;;11.80;4.85;;;;;;;9.49;90.05;101922.28;5074827;28;20029;-59
2023/10/17 00:59:53;;;;;;;;;;;;;;;9.62;88.56;101923.56;5075375;28;20540;-59
2023/10/17 01:02:23;;;;;;;9.00;4.22;;;;;;;9.56;89.74;101928.66;5073016;28;20006;-59
2023/10/17 01:04:52;;;;;;;9.00;4.53;;;;;;;9.55;89.87;101916.31;5074513;28;20029;-59
2023/10/17 01:07:52;;;;;;;10.65;4.28;;;;;;;9.53;90.07;101918.88;5074189;28;20508;-59
2023/10/17 01:10:14;;;;;;;8.07;4.55;;;;;;;9.59;89.82;101930.47;5071517;28;20058;-59
2023/10/17 01:12:48;;;;;;;9.15;4.70;;;;;;;9.60;89.76;101929.66;5074431;28;20040;-59
2023/10/17 01:15:20;;;;;;;8.00;4.47;;;;;;;9.60;89.83;101938.47;5074725;28;20044;-59
2023/10/17 01:17:46;;;;;;;7.97;5.05;;;;;;;9.58;90.11;101926.94;5074486;28;20036;-59
2023/10/17 01:20:18;;;;;;;9.82;4.72;;;;;;;9.54;90.08;101927.69;5074227;28;20029;-59
2023/10/17 01:22:44;;;;;;;13.70;4.57;;;;;;;9.58;89.86;101931.34;5074289;28;20493;-59
2023/10/17 01:25:19;;;;;;;9.55;4.30;;;;;;;9.61;90.04;101929.69;5074147;28;20032;-59
2023/10/17 01:27:45;;;;;;;9.60;4.65;;;;;;;9.67;90.16;101931.63;5074524;28;20032;-59
2023/10/17 01:30:11;;;;;;;11.57;4.15;;;;;;;9.66;90.03;101930.72;5074154;28;20039;-59
2023/10/17 01:32:36;;;;;;;7.93;4.55;;;;;;;9.65;89.94;101921.03;5073754;28;20074;-60
2023/10/17 01:35:03;;;;;;;10.57;4.57;;;;;;;9.61;89.97;101919.16;5074022;28;20029;-59
2023/10/17 01:37:29;;;;;;;12.05;4.70;;;;;;;9.59;89.99;101910.25;5074164;28;20032;-59
2023/10/17 01:39:55;;;;;;;8.65;4.75;;;;;;;9.64;90.02;101910.44;5074051;28;20052;-59
2023/10/17 01:42:21;;;;;;;10.65;4.70;;;;;;;9.58;89.80;101918.16;5073895;28;20486;-59
2023/10/17 01:44:46;;;;;;;7.85;4.57;;;;;;;9.53;90.34;101918.88;5073727;28;20095;-59
2023/10/17 01:47:11;;;;;;;12.90;4.40;;;;;;;9.53;90.54;101908.34;5073751;28;20036;-59
2023/10/17 01:49:37;;;;;;;9.57;4.60;;;;;;;9.57;89.88;101911.09;5073841;28;20035;-59
2023/10/17 01:52:03;;;;;;;9.75;4.47;;;;;;;9.54;89.98;101904.84;5073849;28;20094;-59
2023/10/17 01:54:29;;;;;;;8.55;4.35;;;;;;;9.60;89.80;101903.28;5073683;28;20047;-59
2023/10/17 01:57:05;;;;;;;8.18;4.65;;;;;;;9.61;89.56;101898.03;5073538;28;20029;-59
2023/10/17 01:59:32;;;;;;;9.45;4.32;;;;;;;9.66;89.55;101888.50;5073432;28;20031;-59
2023/10/17 02:01:59;;;;;;;10.32;4.53;;;;;;;9.61;89.19;101883.94;5073158;28;20124;-59
2023/10/17 02:04:25;;;;;;;10.98;4.65;;;;;;;9.54;89.47;101885.47;5072171;28;20041;-59
2023/10/17 02:06:51;;;;;;;7.53;4.70;;;;;;;9.43;90.08;101889.53;5072400;28;20024;-59
2023/10/17 02:11:55;;;;;;;8.75;4.80;;;;;;;9.52;89.91;101874.00;5073648;28;20045;-59
2023/10/17 02:14:22;;;;;;;9.30;5.20;;;;;;;9.48;89.98;101870.38;5073323;28;20086;-60
2023/10/17 02:16:48;;;;;;;11.18;4.93;;;;;;;9.45;89.85;101864.09;5073259;28;20111;-59
2023/10/17 02:19:14;;;;;;;8.48;4.53;;;;;;;9.38;90.32;101875.28;5073275;28;20036;-59
2023/10/17 02:21:39;;;;;;;9.73;4.90;;;;;;;9.37;90.40;101874.38;5073420;28;20431;-59
2023/10/17 02:24:08;;;;;;;8.50;5.10;;;;;;;9.38;90.59;101870.00;5072965;28;20529;-59
2023/10/17 02:26:46;;;;;;;7.95;4.60;;;;;;;9.36;90.24;101858.53;5072955;28;20098;-59
2023/10/17 02:29:12;;;;;;;7.53;4.90;;;;;;;9.36;90.23;101855.88;5072866;28;20036;-59
2023/10/17 02:31:45;;;;;;;7.68;4.88;;;;;;;9.28;90.32;101855.63;5082918;28;20032;-59
2023/10/17 02:34:10;;;;;;;10.02;5.07;;;;;;;9.18;90.77;101862.38;5093033;28;20032;-59
2023/10/17 02:36:36;;;;;;;7.03;4.65;;;;;;;9.15;90.76;101870.16;5093340;28;20028;-59
2023/10/17 02:39:03;;;;;;;10.30;5.10;;;;;;;9.12;91.26;101870.09;5091671;28;20020;-59
2023/10/17 02:41:31;;;;;;;10.25;5.28;;;;;;;9.14;91.39;101864.84;5093060;28;20042;-59
2023/10/17 02:43:56;;;;;;;6.57;5.03;;;;;;;9.17;91.73;101872.88;5092967;28;20078;-60
2023/10/17 02:46:28;;;;;;;10.35;5.30;;;;;;;9.14;91.43;101871.00;5093112;28;20107;-59
2023/10/17 02:48:55;;;;;;;10.30;5.10;;;;;;;9.10;91.33;101866.47;5093221;28;20046;-60
2023/10/17 02:53:53;;;;;;;10.88;5.20;;;;;;;9.01;92.37;101866.19;5092969;28;20043;-59
2023/10/17 02:56:19;;;;;;;11.80;5.47;;;;;;;9.00;92.26;101852.13;5091706;28;20032;-59
2023/10/17 02:59:12;;;;;;;11.55;5.57;;;;;;;9.07;92.76;101860.22;5092051;28;20028;-59
2023/10/17 03:01:45;;;;;;;8.40;5.25;;;;;;;9.12;92.36;101862.19;5092717;28;20126;-60
2023/10/17 03:04:17;;;;;;;8.52;5.53;;;;;;;9.09;92.19;101866.44;5092990;28;20063;-59
2023/10/17 03:06:46;;;;;;;9.27;5.75;;;;;;;9.09;92.07;101864.69;5093215;28;20036;-59
2023/10/17 03:09:26;;;;;;;9.45;5.45;;;;;;;9.03;92.29;101868.00;5092975;28;20111;-59
2023/10/17 03:14:25;;;;;;;10.65;5.80;;;;;;;8.93;92.77;101852.75;5092064;28;20043;-59
2023/10/17 03:16:54;;;;;;;13.32;6.35;;;;;;;8.90;92.69;101851.75;5092834;28;20025;-59
2023/10/17 03:19:27;;;;;;;14.43;6.53;;;;;;;8.92;92.98;101860.59;5092752;28;20028;-60
2023/10/17 03:21:54;;;;;;;10.52;6.18;;;;;;;8.88;92.93;101854.34;5092840;28;20485;-59
2023/10/17 03:27:08;;;;;;;11.35;6.65;;;;;;;8.89;93.46;101860.50;5093056;28;20054;-59
2023/10/17 03:29:41;;;;;;;13.82;7.07;;;;;;;8.86;93.41;101857.75;5095294;28;20102;-59
2023/10/17 03:32:12;;;;;;;12.88;6.78;;;;;;;8.89;93.24;101864.03;5096771;28;20032;-59
2023/10/17 03:34:45;;;;;;;10.95;6.78;;;;;;;8.90;93.58;101868.44;5096468;28;20032;-59
2023/10/17 03:40:18;;;;;;;13.00;6.80;;;;;;;8.82;93.41;101864.66;5083128;28;20354;-59
2023/10/17 03:42:45;;;;;;;11.30;6.97;;;;;;;8.78;93.86;101868.06;5095660;28;20039;-59
2023/10/17 03:45:13;;;;;;;10.73;7.40;;;;;;;8.81;93.99;101872.50;5095495;28;20359;-59
2023/10/17 03:48:04;;;;;;;11.77;7.03;;;;;;;8.82;93.62;101871.66;5096412;28;20020;-59
2023/10/17 03:50:43;;;;;;;16.85;7.63;;;;;;;8.75;93.96;101865.31;5096307;28;20028;-59
2023/10/17 03:53:18;;;;;;;13.45;7.32;;;;;;;8.78;94.42;101870.69;5096575;28;20200;-58
2023/10/17 03:55:48;;;;;;;15.05;7.93;;;;;;;8.78;94.14;101860.16;5095957;28;20082;-58
2023/10/17 03:58:31;;;;;;;9.80;7.03;;;;;;;8.82;94.18;101874.31;5095967;28;20035;-58
2023/10/17 04:00:58;;;;;;;12.77;7.57;;;;;;;8.86;94.49;101869.19;5095903;28;20080;-58
2023/10/17 04:08:46;;;;;;;14.73;8.15;;;;;;;8.94;94.03;101872.97;5095983;28;20111;-57
2023/10/17 04:11:36;;;;;;;15.13;7.93;;;;;;;8.91;93.52;101874.63;5096156;28;20075;-58
2023/10/17 04:14:02;;;;;;;12.43;7.32;;;;;;;8.85;93.98;101875.31;5095870;28;20020;-58
2023/10/17 04:16:34;;;;;;;12.63;7.80;;;;;;;8.86;94.33;101877.09;5095719;28;20385;-58
2023/10/17 04:19:00;;;;;;;13.80;7.97;;;;;;;8.85;93.73;101877.94;5094303;28;20112;-58
2023/10/17 04:21:29;;;;;;;12.20;7.70;;;;;;;8.82;93.83;101869.03;5095549;28;20090;-59
2023/10/17 04:24:06;;;;;;;15.05;7.82;;;;;;;8.79;94.41;101880.38;5095844;28;20028;-59
2023/10/17 04:26:44;;;;;;;11.88;7.60;;;;;;;8.74;94.27;101868.78;5095918;28;20031;-60
2023/10/17 04:29:17;;;;;;;14.70;8.45;;;;;;;8.83;94.37;101881.38;5095477;28;20028;-60
2023/10/17 04:31:43;;;;;;;14.15;7.75;;;;;;;8.86;94.30;101874.44;5095348;28;20123;-59
2023/10/17 04:34:14;;;;;;;12.45;8.00;;;;;;;8.90;94.10;101880.72;5094100;28;20446;-60
2023/10/17 04:36:40;;;;;;;13.98;8.20;;;;;;;8.88;94.21;101878.06;5095203;28;20415;-59
2023/10/17 04:44:50;;;;;;;14.10;8.60;;;;;;;8.74;94.40;101879.34;5095674;28;20066;-60
2023/10/17 04:49:51;;;;;;;13.45;8.20;;;;;;;8.77;94.45;101882.94;5095526;28;20443;-59
2023/10/17 04:52:30;;;;;;;14.73;8.25;;;;;;;8.69;94.83;101879.16;5095437;28;20123;-60
2023/10/17 04:55:17;;;;;;;13.52;8.40;;;;;;;8.66;94.34;101879.06;5095160;28;20067;-60
2023/10/17 05:00:52;;;;;;;12.15;8.27;;;;;;;8.61;95.03;101870.09;5095016;28;20040;-59
2023/10/17 05:03:32;;;;;;;13.82;8.52;;;;;;;8.61;95.16;101870.09;5094747;28;20044;-59
2023/10/17 05:06:18;;;;;;;17.33;9.63;;;;;;;8.61;95.56;101872.72;5094737;28;20036;-59
2023/10/17 06:17:27;;;;;;;17.00;11.43;;;;;;;8.25;98.13;101843.28;5093398;28;20500;-59
2023/10/17 06:19:53;;;;;;;20.52;12.30;;;;;;;8.26;99.03;101848.63;5093086;28;20036;-59
2023/10/17 06:30:35;;;;;;;24.60;13.50;;;;;;;8.24;98.16;101842.41;5092901;28;20036;-60
2023/10/17 06:33:16;;;;;;;20.02;12.07;;;;;;;8.35;98.01;101858.59;5092677;28;20043;-59
2023/10/17 06:35:44;;;;;;;21.35;11.43;;;;;;;8.36;97.91;101857.75;5092976;28;20062;-58
2023/10/17 06:38:10;;;;;;;17.05;10.63;;;;;;;8.37;97.94;101856.06;5093120;28;20101;-58
2023/10/17 06:40:45;;;;;;;19.48;10.82;;;;;;;8.39;97.89;101854.34;5092543;28;20104;-58
2023/10/17 06:43:14;;;;;;;17.42;10.55;;;;;;;8.41;98.24;101865.84;5092756;28;20479;-58
2023/10/17 06:46:40;;;;;;;16.75;10.40;;;;;;;8.39;98.23;101863.16;5092791;28;20056;-59
2023/10/17 06:48:48;;;;;;;15.77;10.25;;;;;;;8.39;97.97;101865.78;5084317;28;20457;-59
2023/10/17 06:53:40;;;;;;;17.80;10.80;;;;;;;8.38;97.92;101874.53;5092962;28;20035;-59
2023/10/17 06:56:09;;;;;;;14.93;10.38;;;;;;;8.41;98.17;101877.28;5092515;28;20103;-58
2023/10/17 06:58:35;;;;;;;16.20;10.55;;;;;;;8.43;98.51;101874.69;5092551;28;20507;-58
2023/10/17 07:01:04;;;;;;;18.17;10.82;;;;;;;8.40;98.33;101875.50;5092530;28;20028;-59
2023/10/17 07:03:34;;;;;;;18.33;10.23;;;;;;;8.38;98.25;101873.63;5091824;28;20408;-59
2023/10/17 07:06:11;;;;;;;18.30;10.70;;;;;;;8.43;98.11;101879.97;5095744;28;20050;-59
2023/10/17 07:08:37;;;;;;;15.57;10.60;;;;;;;8.46;97.72;101875.72;5096673;28;20036;-59
2023/10/17 07:11:03;;;;;;;14.15;10.45;;;;;;;8.50;97.78;101874.09;5096594;28;20038;-59
2023/10/17 07:14:10;;;;;;;15.57;10.13;;;;;;;8.54;98.19;101870.72;5096484;28;20390;-59
2023/10/17 07:22:06;;;;;;;19.30;9.68;;;;;;;8.59;97.33;101879.66;5096825;28;20040;-59
2023/10/17 07:24:36;;;;;;;;;;;;;;;8.68;97.14;101871.19;5096902;28;20576;-59
2023/10/17 07:27:03;;;;;;;14.05;9.55;;;;;;;8.66;96.93;101867.63;5095140;28;19951;-59
2023/10/17 07:29:33;;;;;;;14.77;9.57;;;;;;;8.68;97.23;101866.81;5096557;28;20016;-59
2023/10/17 07:32:01;;;;;;;17.35;9.57;;;;;;;8.71;96.80;101863.41;5096474;28;20032;-59
2023/10/17 07:34:36;;;;;;;15.80;9.73;;;;;;;8.68;97.34;101865.94;5096341;28;20031;-60
2023/10/17 07:37:23;;;;;;;14.27;9.43;;;;;;;8.69;96.68;101860.72;5096499;28;20039;-59
2023/10/17 07:42:40;;;;;;;14.57;9.43;;;;;;;8.93;97.01;101872.94;5096588;28;20132;-59
2023/10/17 07:45:14;;;;;;;17.88;9.68;;;;;;;9.26;96.46;101881.06;5096475;28;20051;-59
2023/10/17 07:47:41;;;;;;;12.13;9.10;;;;;;;9.51;94.41;101882.78;5096402;28;20074;-59
2023/10/17 07:50:12;;;;;;;16.83;9.63;;;;;;;9.53;93.01;101881.94;5095764;28;20466;-59
2023/10/17 07:52:38;;;;;;;13.50;9.73;;;;;;;9.51;93.32;101882.78;5096262;28;20036;-58
2023/10/17 07:55:34;;;;;;;12.57;9.00;;;;;;;9.47;92.49;101880.88;5096090;28;20115;-59
2023/10/17 07:58:06;;;;;;;11.68;8.45;;;;;;;9.43;92.53;101873.72;5095766;28;20039;-58
2023/10/17 08:00:36;;;;;;;14.82;8.98;;;;;;;9.36;92.50;101875.25;5095925;28;20050;-58
2023/10/17 08:03:17;;;;;;;14.55;8.90;;;;;;;9.34;92.66;101873.44;5095432;28;20443;-58
2023/10/17 08:08:33;;;;;;;14.20;9.20;;;;;;;9.70;93.30;101864.00;5095910;28;20512;-58
2023/10/17 08:11:06;;;;;;;12.85;8.85;;;;;;;10.00;92.65;101857.84;5095920;28;20035;-58
2023/10/17 08:13:32;;;;;;;;;;;;;;;10.32;92.82;101866.75;5096197;28;20173;-59
2023/10/17 08:16:10;;;;;;;17.63;8.88;;;;;;;10.75;89.63;101860.88;5095654;28;19912;-59
2023/10/17 08:18:46;;;;;;;13.75;8.77;;;;;;;11.17;89.14;101857.50;5095318;28;20029;-59
2023/10/17 08:23:46;;;;;;;15.45;9.02;;;;;;;12.07;82.58;101861.34;5095746;28;20070;-59
2023/10/17 08:26:16;;;;;;;13.32;8.18;;;;;;;12.37;79.85;101866.38;5095207;28;20040;-59
2023/10/17 08:31:35;;;;;;;11.88;7.72;;;;;;;12.96;76.08;101863.94;5095502;28;20047;-59
2023/10/17 08:36:42;;;;;;;12.30;8.00;;;;;;;13.48;75.34;101862.16;5094981;28;20378;-59
2023/10/17 08:42:05;;;;;;;11.13;7.50;;;;;;;14.03;70.40;101860.28;5094963;28;20044;-59
2023/10/17 08:44:35;;;;;;;13.90;7.20;;;;;;;14.26;69.38;101860.56;5094902;28;20457;-59
2023/10/17 08:47:01;;;;;;;9.88;7.13;;;;;;;14.26;68.26;101857.91;5094764;28;20085;-59
2023/10/17 08:49:27;;;;;;;11.98;7.50;;;;;;;14.35;67.75;101859.78;5094689;28;20024;-59
2023/10/17 08:51:56;;;;;;;13.50;7.25;;;;;;;14.48;67.77;101861.75;5094804;28;20040;-59
2023/10/17 08:54:23;;;;;;;12.20;7.47;;;;;;;14.60;67.04;101866.28;5094622;28;20038;-59
2023/10/17 08:56:50;;;;;;;10.50;6.88;;;;;;;14.66;66.48;101863.69;5094326;28;20020;-59
2023/10/17 08:59:15;;;;;;;10.52;6.90;;;;;;;14.91;64.86;101862.19;5094731;28;20085;-59
2023/10/17 09:02:03;;;;;;;10.25;6.80;;;;;;;15.37;65.92;101861.66;5093983;28;20131;-59
2023/10/17 09:04:33;;;;;;;11.10;6.82;;;;;;;15.52;62.73;101865.31;5094710;28;20032;-59
2023/10/17 09:07:07;;;;;;;10.18;6.20;;;;;;;15.60;62.08;101861.81;5094434;28;20462;-59
2023/10/17 09:09:34;;;;;;;11.57;6.57;;;;;;;15.80;60.90;101857.50;5094433;28;20128;-59
2023/10/17 09:12:01;;;;;;;12.57;6.20;;;;;;;15.91;60.70;101849.59;5094388;28;20024;-59
2023/10/17 09:14:29;;;;;;;10.50;5.82;;;;;;;16.33;60.90;101851.53;5094208;28;20429;-59
2023/10/17 09:17:10;;;;;;;10.82;5.82;;;;;;;16.34;57.61;101850.63;5092686;28;20032;-59
2023/10/17 09:19:46;;;;;;;11.57;5.93;;;;;;;16.36;59.26;101850.63;5094399;28;20032;-59
2023/10/17 09:22:15;;;;;;;10.38;5.95;;;;;;;16.68;59.01;101853.41;5094206;28;20077;-59
2023/10/17 09:24:43;;;;;;;8.32;5.32;;;;;;;16.88;55.54;101856.13;5094310;28;20034;-59
2023/10/17 09:27:14;;;;;;;7.47;5.25;;;;;;;16.86;54.92;101855.22;5093448;28;20035;-59
2023/10/17 09:29:47;;;;;;;8.60;5.32;;;;;;;17.25;56.16;101857.91;5094298;28;20035;-59
2023/10/17 09:32:30;;;;;;;9.52;5.47;;;;;;;17.09;53.31;101858.81;5093925;28;20115;-59
2023/10/17 09:34:56;;;;;;;9.15;5.43;;;;;;;17.05;54.08;101866.81;5094039;28;20097;-60
2023/10/17 09:37:22;;;;;;;7.07;5.45;;;;;;;17.18;53.88;101864.16;5093877;28;20116;-60
2023/10/17 09:39:48;;;;;;;9.43;4.68;;;;;;;17.07;53.41;101865.91;5093515;28;20115;-60
2023/10/17 09:42:14;;;;;;;7.53;5.00;;;;;;;17.47;54.20;101848.09;5093777;28;20040;-60
2023/10/17 09:44:40;;;;;;;8.98;5.18;;;;;;;17.63;52.96;101858.75;5093443;28;20031;-60
2023/10/17 09:47:08;;;;;;;9.40;5.45;;;;;;;17.71;54.76;101856.94;5101382;28;20028;-60
2023/10/17 09:49:48;;;;;;;8.23;5.13;;;;;;;17.73;50.82;101853.38;5110918;28;20032;-60
2023/10/17 09:52:16;;;;;;;7.43;4.50;;;;;;;17.40;50.36;101850.78;5110496;28;20035;-60
2023/10/17 09:54:43;;;;;;;6.60;4.85;;;;;;;17.71;52.79;101846.25;5110620;28;20032;-60
2023/10/17 09:57:16;;;;;;;6.57;4.90;;;;;;;17.89;50.74;101856.91;5095228;28;20039;-61
2023/10/17 09:59:58;;;;;;;8.00;4.82;;;;;;;17.82;50.25;101849.84;5101296;28;20034;-60
2023/10/17 10:02:24;;;;;;;10.20;4.70;;;;;;;17.96;49.88;101857.81;5084348;28;20421;-60
2023/10/17 10:04:49;;;;;;;7.30;4.40;;;;;;;17.86;48.47;101856.03;5105617;28;20077;-60
2023/10/17 10:07:19;;;;;;;8.93;4.63;;;;;;;17.85;49.95;101851.59;5113546;28;20023;-60
2023/10/17 10:09:45;;;;;;;7.15;4.47;;;;;;;18.13;50.65;101861.28;5113759;28;20023;-60
2023/10/17 10:12:10;;;;;;;10.35;4.50;;;;;;;18.19;50.88;101853.22;5113344;28;20491;-60
2023/10/17 10:14:40;;;;;;;8.20;4.40;;;;;;;18.32;49.41;101851.38;5113555;28;20031;-60
2023/10/17 10:17:06;;;;;;;8.25;4.18;;;;;;;18.52;49.61;101856.63;5113644;28;20028;-60
2023/10/17 10:19:43;;;;;;;8.20;4.43;;;;;;;18.87;49.16;101850.19;5113707;28;20035;-61
2023/10/17 10:22:17;;;;;;;8.77;4.20;;;;;;;19.17;47.16;101841.91;5106810;28;20031;-60
2023/10/17 10:24:45;;;;;;;6.55;4.05;;;;;;;18.87;46.61;101844.84;5112296;28;20395;-60
2023/10/17 10:27:11;;;;;;;7.03;3.80;;;;;;;18.79;45.61;101841.31;5113631;28;20357;-60
2023/10/17 10:29:39;;;;;;;7.60;3.60;;;;;;;19.17;46.35;101832.97;5113563;28;20483;-60
2023/10/17 10:32:08;;;;;;;9.13;3.88;;;;;;;19.15;45.84;101827.63;5113145;28;20020;-60
2023/10/17 10:34:35;;;;;;;5.95;3.70;;;;;;;18.99;44.69;101834.91;5111924;28;20114;-60
2023/10/17 10:37:01;;;;;;;7.43;3.45;;;;;;;18.67;45.22;101827.09;5113462;28;20084;-60
2023/10/17 10:39:26;;;;;;;5.32;3.45;;;;;;;18.65;44.87;101825.31;5112319;28;20035;-61
2023/10/17 10:41:56;;;;;;;6.78;3.80;;;;;;;18.52;45.36;101825.41;5113248;28;20023;-60
2023/10/17 10:44:22;;;;;;;6.93;3.38;;;;;;;18.66;46.32;101827.09;5113100;28;20380;-60
2023/10/17 10:46:47;;;;;;;6.90;3.70;;;;;;;18.73;46.68;101818.16;5112001;28;20049;-61
2023/10/17 10:49:13;;;;;;;9.00;3.70;;;;;;;18.77;45.34;101823.47;5113024;28;20031;-60
2023/10/17 10:51:47;;;;;;;7.00;3.78;;;;;;;18.72;46.31;101808.38;5113326;28;20110;-60
2023/10/17 10:54:13;;;;;;;8.63;4.80;;;;;;;18.90;45.17;101808.22;5113183;28;20111;-61
2023/10/17 10:56:38;;;;;;;8.10;3.75;;;;;;;18.77;45.05;101801.19;5113094;28;20393;-61
2023/10/17 10:59:05;;;;;;;6.53;3.42;;;;;;;18.91;45.94;101790.34;5112862;28;20027;-60
2023/10/17 11:01:30;;;;;;;8.75;3.58;;;;;;;19.08;45.33;101788.41;5112748;28;20484;-60
2023/10/17 11:03:58;;;;;;;6.65;3.67;;;;;;;19.08;44.58;101793.75;5103295;28;20071;-60
2023/10/17 11:06:29;;;;;;;5.97;3.45;;;;;;;18.91;44.17;101795.69;5102641;28;20111;-61
2023/10/17 11:08:55;;;;;;;9.35;3.70;;;;;;;18.76;44.56;101794.06;5094994;28;20032;-61
2023/10/17 11:11:20;;;;;;;7.43;3.13;;;;;;;18.98;44.91;101784.03;5092279;28;20040;-60
2023/10/17 11:13:47;;;;;;;5.60;3.60;;;;;;;18.86;44.09;101786.81;5092861;28;20028;-60
2023/10/17 11:16:21;;;;;;;6.85;3.30;;;;;;;18.79;44.17;101780.63;5092640;28;20059;-60
2023/10/17 11:18:47;;;;;;;4.43;3.03;;;;;;;18.72;44.53;101774.44;5092478;28;20123;-60
2023/10/17 11:21:16;;;;;;;5.90;3.10;;;;;;;18.96;44.41;101773.31;5092321;28;20028;-60
2023/10/17 11:23:50;;;;;;;5.13;3.00;;;;;;;18.72;45.22;101770.88;5092339;28;20024;-60
2023/10/17 11:26:19;;;;;;;5.10;3.00;;;;;;;18.87;44.00;101767.16;5092621;28;20127;-60
2023/10/17 11:28:51;;;;;;;5.05;3.17;;;;;;;19.39;42.74;101763.97;5092298;28;20469;-60
2023/10/17 11:31:24;;;;;;;;;;;;;;;19.40;44.08;101763.06;5092823;28;20036;-60
2023/10/17 11:33:59;;;;;;;;;;;;;;;19.32;44.53;101759.59;5092615;28;19915;-60
2023/10/17 11:36:25;;;;;;;6.70;3.10;;;;;;;19.29;42.96;101757.81;5092295;28;20361;-61
2023/10/17 11:38:58;;;;;;;7.78;3.30;;;;;;;19.32;43.79;101747.09;5090934;28;20453;-61
2023/10/17 11:41:38;;;;;;;4.38;2.97;;;;;;;19.69;44.70;101747.53;5092410;28;20036;-60
2023/10/17 11:44:04;;;;;;;7.40;3.33;;;;;;;19.94;42.58;101745.44;5092385;28;20111;-60
2023/10/17 11:46:34;;;;;;;5.68;3.22;;;;;;;19.94;41.87;101747.25;5092471;28;20107;-60
2023/10/17 11:49:20;;;;;;;5.68;3.10;;;;;;;19.82;41.85;101750.06;5091949;28;20028;-61
2023/10/17 11:52:10;;;;;;;5.10;3.10;;;;;;;19.41;43.99;101751.44;5095967;28;20024;-61
2023/10/17 11:55:03;;;;;;;6.18;3.40;;;;;;;19.12;43.06;101733.88;5085643;28;20127;-60
2023/10/17 11:57:31;;;;;;;6.97;3.38;;;;;;;18.96;43.88;101737.63;5096171;28;20040;-60
2023/10/17 12:02:49;;;;;;;5.68;3.10;;;;;;;19.05;42.71;101732.16;5095522;28;20068;-61
2023/10/17 12:05:18;;;;;;;7.45;3.50;;;;;;;19.07;42.04;101746.44;5095427;28;20032;-60
2023/10/17 12:07:53;;;;;;;6.00;3.35;;;;;;;19.36;42.54;101743.47;5095665;28;20032;-61
2023/10/17 12:10:20;;;;;;;6.32;3.50;;;;;;;19.40;42.69;101737.16;5095680;28;20043;-60
2023/10/17 12:12:46;;;;;;;5.80;3.15;;;;;;;19.64;42.26;101749.41;5095603;28;20032;-60
2023/10/17 12:15:20;;;;;;;6.13;3.10;;;;;;;19.72;41.01;101743.94;5094057;28;20024;-60
2023/10/17 12:17:48;;;;;;;6.05;3.10;;;;;;;19.67;41.14;101737.78;5095398;28;20036;-60
2023/10/17 12:20:13;;;;;;;5.68;2.80;;;;;;;19.75;41.27;101728.72;5094032;28;20038;-61
2023/10/17 12:22:40;;;;;;;5.70;2.97;;;;;;;19.63;40.99;101719.94;5095599;28;20012;-61
2023/10/17 12:25:06;;;;;;;5.35;3.08;;;;;;;19.21;41.59;101703.44;5095043;28;20029;-61
2023/10/17 12:27:32;;;;;;;7.45;3.08;;;;;;;18.96;43.13;101695.66;5095122;28;20543;-61
2023/10/17 12:29:58;;;;;;;4.43;3.00;;;;;;;19.10;44.63;101691.94;5095146;28;20024;-61
2023/10/17 12:32:23;;;;;;;6.65;3.10;;;;;;;19.31;42.52;101690.81;5095081;28;20060;-61
2023/10/17 12:34:49;;;;;;;4.93;3.15;;;;;;;19.56;42.41;101689.59;5095040;28;20369;-61
2023/10/17 12:37:17;;;;;;;7.03;3.13;;;;;;;19.60;43.05;101685.09;5094673;28;20028;-61
2023/10/17 12:39:43;;;;;;;6.60;3.15;;;;;;;19.71;42.43;101680.50;5094931;28;20059;-61
2023/10/17 12:42:10;;;;;;;4.60;2.95;;;;;;;19.52;41.54;101671.78;5094787;28;20099;-61
2023/10/17 12:44:36;;;;;;;5.35;3.08;;;;;;;19.41;41.22;101668.38;5095039;28;20024;-61
2023/10/17 12:47:01;;;;;;;5.03;2.88;;;;;;;19.14;42.94;101645.44;5095021;28;20026;-60
2023/10/17 12:49:27;;;;;;;5.43;3.00;;;;;;;19.04;44.03;101641.13;5095019;28;20115;-61
2023/10/17 12:51:53;;;;;;;7.10;3.10;;;;;;;18.96;41.94;101654.59;5094838;28;20027;-60
2023/10/17 12:54:18;;;;;;;4.97;3.00;;;;;;;18.85;42.49;101644.00;5095006;28;20036;-60
2023/10/17 12:56:44;;;;;;;4.88;2.70;;;;;;;18.66;42.26;101635.22;5094811;28;20035;-60
2023/10/17 12:59:12;;;;;;;5.10;2.88;;;;;;;18.53;42.09;101628.22;5093871;28;20378;-60
2023/10/17 13:01:38;;;;;;;3.78;2.67;;;;;;;18.73;43.47;101623.59;5093234;28;20141;-60
2023/10/17 13:04:04;;;;;;;6.95;2.92;;;;;;;18.88;42.70;101629.69;5094223;28;20043;-61
2023/10/17 13:06:29;;;;;;;5.93;3.03;;;;;;;18.93;42.43;101633.22;5094661;28;20374;-61
2023/10/17 13:08:57;;;;;;;4.22;2.80;;;;;;;19.07;42.10;101633.06;5096898;28;20388;-61
2023/10/17 13:11:27;;;;;;;5.90;3.10;;;;;;;19.06;42.83;101647.31;5109989;28;20032;-60
2023/10/17 13:13:54;;;;;;;4.13;2.97;;;;;;;18.95;42.02;101629.59;5114483;28;20032;-60
2023/10/17 13:16:21;;;;;;;4.72;3.10;;;;;;;18.76;42.98;101628.03;5114763;28;20020;-60
2023/10/17 13:18:47;;;;;;;6.45;3.50;;;;;;;18.68;43.03;101627.19;5114523;28;20106;-60
2023/10/17 13:21:16;;;;;;;4.97;3.20;;;;;;;18.57;43.74;101624.59;5114289;28;20503;-60
2023/10/17 13:23:44;;;;;;;5.75;3.10;;;;;;;18.27;45.54;101615.97;5114223;28;20076;-60
2023/10/17 13:26:22;;;;;;;6.03;3.45;;;;;;;17.88;44.57;101614.50;5113366;28;20035;-61
2023/10/17 13:28:47;;;;;;;6.68;3.42;;;;;;;18.02;45.84;101617.06;5114492;28;20031;-60
2023/10/17 13:31:14;;;;;;;5.38;3.40;;;;;;;18.07;45.42;101617.03;5114354;28;20030;-60
2023/10/17 13:33:49;;;;;;;5.60;3.30;;;;;;;18.25;45.33;101619.56;5114457;28;20028;-60
2023/10/17 13:36:16;;;;;;;5.63;3.47;;;;;;;18.25;44.28;101624.91;5114114;28;20035;-61
2023/10/17 13:38:43;;;;;;;6.15;3.45;;;;;;;18.44;46.05;101625.63;5114292;28;20115;-60
2023/10/17 13:41:09;;;;;;;7.60;3.70;;;;;;;18.40;44.01;101622.09;5114177;28;20376;-60
2023/10/17 13:43:36;;;;;;;5.13;3.38;;;;;;;18.38;44.04;101615.88;5114326;28;20476;-63
2023/10/17 13:46:07;;;;;;;4.95;3.20;;;;;;;18.39;44.71;101601.59;5114185;27;20024;-60
2023/10/17 13:48:33;;;;;;;6.43;3.70;;;;;;;18.07;43.56;101598.28;5114420;28;20435;-61
2023/10/17 13:51:03;;;;;;;7.43;3.60;;;;;;;18.05;45.05;101603.66;5113844;28;20119;-60
2023/10/17 13:53:29;;;;;;;6.57;3.53;;;;;;;18.06;44.83;101607.22;5112764;28;20534;-60
2023/10/17 13:55:54;;;;;;;5.65;3.80;;;;;;;18.04;44.83;101603.69;5113861;28;20057;-60
2023/10/17 13:58:20;;;;;;;5.65;3.85;;;;;;;17.88;45.10;101600.25;5113773;28;20073;-60
2023/10/17 14:00:51;;;;;;;7.63;3.97;;;;;;;18.08;46.28;101600.09;5113728;28;20028;-60